sensor_id;sensor_type;location;lat;lon;timestamp;P1;durP1;ratioP1;P2;durP2;ratioP2
63193;SDS011;49289;51.670;5.624;2022-10-16T00:00:13;4.60;;;2.80;;
63193;SDS011;49289;51.670;5.624;2022-10-16T00:02:01;7.10;;;3.10;;
63193;SDS011;49289;51.670;5.624;2022-10-16T00:03:49;6.90;;;3.00;;
63193;SDS011;49289;51.670;5.624;2022-10-16T00:05:37;5.20;;;2.90;;
63193;SDS011;49289;51.670;5.624;2022-10-16T00:07:26;4.40;;;2.90;;
63193;SDS011;49289;51.670;5.624;2022-10-16T00:09:14;4.70;;;3.10;;
63193;SDS011;49289;51.670;5.624;2022-10-16T00:11:06;5.20;;;3.10;;
63193;SDS011;49289;51.670;5.624;2022-10-16T00:12:52;4.20;;;2.80;;
63193;SDS011;49289;51.670;5.624;2022-10-16T00:14:39;4.30;;;2.80;;
63193;SDS011;49289;51.670;5.624;2022-10-16T00:16:26;5.70;;;3.30;;
63193;SDS011;49289;51.670;5.624;2022-10-16T00:18:13;6.10;;;3.10;;
63193;SDS011;49289;51.670;5.624;2022-10-16T00:20:00;4.90;;;3.00;;
63193;SDS011;49289;51.670;5.624;2022-10-16T00:21:48;6.70;;;3.10;;
63193;SDS011;49289;51.670;5.624;2022-10-16T00:23:36;6.20;;;2.90;;
63193;SDS011;49289;51.670;5.624;2022-10-16T00:25:24;5.10;;;2.90;;
63193;SDS011;49289;51.670;5.624;2022-10-16T00:27:13;7.40;;;3.10;;
63193;SDS011;49289;51.670;5.624;2022-10-16T00:29:02;5.20;;;2.80;;
63193;SDS011;49289;51.670;5.624;2022-10-16T00:30:52;6.20;;;2.80;;
63193;SDS011;49289;51.670;5.624;2022-10-16T00:32:40;3.80;;;2.90;;
63193;SDS011;49289;51.670;5.624;2022-10-16T00:34:28;5.00;;;2.70;;
63193;SDS011;49289;51.670;5.624;2022-10-16T00:36:17;6.00;;;3.00;;
63193;SDS011;49289;51.670;5.624;2022-10-16T00:38:05;5.50;;;2.90;;
63193;SDS011;49289;51.670;5.624;2022-10-16T00:39:52;4.50;;;2.70;;
63193;SDS011;49289;51.670;5.624;2022-10-16T00:41:39;5.90;;;3.00;;
63193;SDS011;49289;51.670;5.624;2022-10-16T00:43:43;5.10;;;2.90;;
63193;SDS011;49289;51.670;5.624;2022-10-16T00:45:31;4.30;;;2.60;;
63193;SDS011;49289;51.670;5.624;2022-10-16T00:47:19;4.00;;;2.60;;
63193;SDS011;49289;51.670;5.624;2022-10-16T00:49:08;4.60;;;3.00;;
63193;SDS011;49289;51.670;5.624;2022-10-16T00:50:55;4.80;;;2.60;;
63193;SDS011;49289;51.670;5.624;2022-10-16T00:52:44;4.90;;;2.50;;
63193;SDS011;49289;51.670;5.624;2022-10-16T00:54:31;6.70;;;3.10;;
63193;SDS011;49289;51.670;5.624;2022-10-16T00:56:18;4.60;;;2.80;;
63193;SDS011;49289;51.670;5.624;2022-10-16T00:58:05;4.20;;;2.90;;
63193;SDS011;49289;51.670;5.624;2022-10-16T00:59:52;5.30;;;2.60;;
63193;SDS011;49289;51.670;5.624;2022-10-16T01:01:39;4.10;;;2.70;;
63193;SDS011;49289;51.670;5.624;2022-10-16T01:03:30;3.70;;;2.70;;
63193;SDS011;49289;51.670;5.624;2022-10-16T01:05:16;4.40;;;2.60;;
63193;SDS011;49289;51.670;5.624;2022-10-16T01:07:06;3.50;;;2.60;;
63193;SDS011;49289;51.670;5.624;2022-10-16T01:08:56;5.00;;;2.80;;
63193;SDS011;49289;51.670;5.624;2022-10-16T01:10:52;3.70;;;2.50;;
63193;SDS011;49289;51.670;5.624;2022-10-16T01:12:39;5.30;;;2.80;;
63193;SDS011;49289;51.670;5.624;2022-10-16T01:14:28;3.60;;;2.70;;
63193;SDS011;49289;51.670;5.624;2022-10-16T01:16:16;4.10;;;2.50;;
63193;SDS011;49289;51.670;5.624;2022-10-16T01:18:05;3.50;;;2.70;;
63193;SDS011;49289;51.670;5.624;2022-10-16T01:19:58;6.10;;;2.50;;
63193;SDS011;49289;51.670;5.624;2022-10-16T01:21:47;4.10;;;2.60;;
63193;SDS011;49289;51.670;5.624;2022-10-16T01:23:36;4.10;;;2.60;;
63193;SDS011;49289;51.670;5.624;2022-10-16T01:25:25;3.80;;;2.70;;
63193;SDS011;49289;51.670;5.624;2022-10-16T01:27:16;4.70;;;3.10;;
63193;SDS011;49289;51.670;5.624;2022-10-16T01:29:03;4.80;;;2.80;;
63193;SDS011;49289;51.670;5.624;2022-10-16T01:30:52;3.30;;;2.70;;
63193;SDS011;49289;51.670;5.624;2022-10-16T01:32:40;2.90;;;2.50;;
63193;SDS011;49289;51.670;5.624;2022-10-16T01:34:28;5.00;;;2.70;;
63193;SDS011;49289;51.670;5.624;2022-10-16T01:36:15;4.20;;;2.70;;
63193;SDS011;49289;51.670;5.624;2022-10-16T01:38:03;3.20;;;2.40;;
63193;SDS011;49289;51.670;5.624;2022-10-16T01:39:50;4.20;;;2.50;;
63193;SDS011;49289;51.670;5.624;2022-10-16T01:41:39;4.50;;;2.70;;
63193;SDS011;49289;51.670;5.624;2022-10-16T01:43:26;5.70;;;2.80;;
63193;SDS011;49289;51.670;5.624;2022-10-16T01:45:15;3.70;;;2.80;;
63193;SDS011;49289;51.670;5.624;2022-10-16T01:47:02;4.60;;;2.60;;
63193;SDS011;49289;51.670;5.624;2022-10-16T01:48:50;3.10;;;2.30;;
63193;SDS011;49289;51.670;5.624;2022-10-16T01:50:39;2.60;;;2.40;;
63193;SDS011;49289;51.670;5.624;2022-10-16T01:52:28;5.40;;;2.80;;
63193;SDS011;49289;51.670;5.624;2022-10-16T01:54:16;3.50;;;2.40;;
63193;SDS011;49289;51.670;5.624;2022-10-16T01:56:05;4.70;;;2.50;;
63193;SDS011;49289;51.670;5.624;2022-10-16T01:57:52;4.70;;;2.50;;
63193;SDS011;49289;51.670;5.624;2022-10-16T01:59:40;3.20;;;2.50;;
63193;SDS011;49289;51.670;5.624;2022-10-16T02:01:26;4.60;;;2.70;;
63193;SDS011;49289;51.670;5.624;2022-10-16T02:03:14;3.50;;;2.50;;
63193;SDS011;49289;51.670;5.624;2022-10-16T02:05:01;3.90;;;2.40;;
63193;SDS011;49289;51.670;5.624;2022-10-16T02:06:48;3.30;;;2.50;;
63193;SDS011;49289;51.670;5.624;2022-10-16T02:08:22;2.50;;;2.30;;
63193;SDS011;49289;51.670;5.624;2022-10-16T02:10:10;4.80;;;2.50;;
63193;SDS011;49289;51.670;5.624;2022-10-16T02:11:57;2.90;;;2.20;;
63193;SDS011;49289;51.670;5.624;2022-10-16T02:13:46;3.20;;;2.40;;
63193;SDS011;49289;51.670;5.624;2022-10-16T02:15:32;4.00;;;2.30;;
63193;SDS011;49289;51.670;5.624;2022-10-16T02:17:19;3.70;;;2.30;;
63193;SDS011;49289;51.670;5.624;2022-10-16T02:19:08;3.90;;;2.40;;
63193;SDS011;49289;51.670;5.624;2022-10-16T02:20:57;5.10;;;2.50;;
63193;SDS011;49289;51.670;5.624;2022-10-16T02:22:45;4.70;;;2.30;;
63193;SDS011;49289;51.670;5.624;2022-10-16T02:24:33;4.50;;;2.20;;
63193;SDS011;49289;51.670;5.624;2022-10-16T02:26:23;2.70;;;2.30;;
63193;SDS011;49289;51.670;5.624;2022-10-16T02:28:11;4.10;;;2.40;;
63193;SDS011;49289;51.670;5.624;2022-10-16T02:29:59;3.90;;;2.70;;
63193;SDS011;49289;51.670;5.624;2022-10-16T02:31:47;3.30;;;2.10;;
63193;SDS011;49289;51.670;5.624;2022-10-16T02:33:33;3.80;;;2.30;;
63193;SDS011;49289;51.670;5.624;2022-10-16T02:35:21;3.00;;;2.30;;
63193;SDS011;49289;51.670;5.624;2022-10-16T02:37:08;3.70;;;2.30;;
63193;SDS011;49289;51.670;5.624;2022-10-16T02:38:57;2.80;;;2.10;;
63193;SDS011;49289;51.670;5.624;2022-10-16T02:40:46;4.00;;;2.50;;
63193;SDS011;49289;51.670;5.624;2022-10-16T02:42:35;4.80;;;2.20;;
63193;SDS011;49289;51.670;5.624;2022-10-16T02:44:23;2.80;;;2.10;;
63193;SDS011;49289;51.670;5.624;2022-10-16T02:46:11;3.00;;;2.10;;
63193;SDS011;49289;51.670;5.624;2022-10-16T02:47:59;2.30;;;2.00;;
63193;SDS011;49289;51.670;5.624;2022-10-16T02:49:48;3.70;;;2.30;;
63193;SDS011;49289;51.670;5.624;2022-10-16T02:51:35;3.10;;;2.00;;
63193;SDS011;49289;51.670;5.624;2022-10-16T02:53:23;3.50;;;2.10;;
63193;SDS011;49289;51.670;5.624;2022-10-16T02:55:10;3.40;;;2.60;;
63193;SDS011;49289;51.670;5.624;2022-10-16T02:56:58;4.40;;;2.50;;
63193;SDS011;49289;51.670;5.624;2022-10-16T02:58:46;3.60;;;2.20;;
63193;SDS011;49289;51.670;5.624;2022-10-16T03:00:35;2.80;;;2.00;;
63193;SDS011;49289;51.670;5.624;2022-10-16T03:02:24;3.70;;;2.00;;
63193;SDS011;49289;51.670;5.624;2022-10-16T03:04:12;3.30;;;2.30;;
63193;SDS011;49289;51.670;5.624;2022-10-16T03:06:00;4.40;;;2.30;;
63193;SDS011;49289;51.670;5.624;2022-10-16T03:07:48;4.50;;;2.20;;
63193;SDS011;49289;51.670;5.624;2022-10-16T03:09:36;4.30;;;2.20;;
63193;SDS011;49289;51.670;5.624;2022-10-16T03:11:24;3.50;;;2.10;;
63193;SDS011;49289;51.670;5.624;2022-10-16T03:13:12;3.70;;;2.20;;
63193;SDS011;49289;51.670;5.624;2022-10-16T03:15:00;2.30;;;1.90;;
63193;SDS011;49289;51.670;5.624;2022-10-16T03:16:47;3.30;;;2.20;;
63193;SDS011;49289;51.670;5.624;2022-10-16T03:18:34;2.70;;;2.00;;
63193;SDS011;49289;51.670;5.624;2022-10-16T03:20:22;4.90;;;1.90;;
63193;SDS011;49289;51.670;5.624;2022-10-16T03:22:09;2.00;;;1.90;;
63193;SDS011;49289;51.670;5.624;2022-10-16T03:23:57;3.00;;;2.10;;
63193;SDS011;49289;51.670;5.624;2022-10-16T03:25:44;4.30;;;2.20;;
63193;SDS011;49289;51.670;5.624;2022-10-16T03:27:33;4.60;;;2.30;;
63193;SDS011;49289;51.670;5.624;2022-10-16T03:29:21;2.40;;;2.20;;
63193;SDS011;49289;51.670;5.624;2022-10-16T03:31:08;3.70;;;2.20;;
63193;SDS011;49289;51.670;5.624;2022-10-16T03:32:55;3.90;;;2.20;;
63193;SDS011;49289;51.670;5.624;2022-10-16T03:34:42;2.70;;;2.20;;
63193;SDS011;49289;51.670;5.624;2022-10-16T03:36:29;3.30;;;2.20;;
63193;SDS011;49289;51.670;5.624;2022-10-16T03:38:16;2.20;;;2.00;;
63193;SDS011;49289;51.670;5.624;2022-10-16T03:40:03;3.10;;;2.50;;
63193;SDS011;49289;51.670;5.624;2022-10-16T03:41:51;2.80;;;2.30;;
63193;SDS011;49289;51.670;5.624;2022-10-16T03:43:38;2.50;;;2.30;;
63193;SDS011;49289;51.670;5.624;2022-10-16T03:45:26;2.30;;;2.10;;
63193;SDS011;49289;51.670;5.624;2022-10-16T03:47:14;3.30;;;2.10;;
63193;SDS011;49289;51.670;5.624;2022-10-16T03:49:02;2.20;;;2.00;;
63193;SDS011;49289;51.670;5.624;2022-10-16T03:50:50;3.50;;;1.90;;
63193;SDS011;49289;51.670;5.624;2022-10-16T03:52:38;3.90;;;2.10;;
63193;SDS011;49289;51.670;5.624;2022-10-16T03:54:25;3.10;;;2.10;;
63193;SDS011;49289;51.670;5.624;2022-10-16T03:55:58;2.30;;;2.10;;
63193;SDS011;49289;51.670;5.624;2022-10-16T03:57:46;2.80;;;2.10;;
63193;SDS011;49289;51.670;5.624;2022-10-16T03:59:34;4.10;;;2.30;;
63193;SDS011;49289;51.670;5.624;2022-10-16T04:01:21;3.70;;;2.10;;
63193;SDS011;49289;51.670;5.624;2022-10-16T04:03:09;4.50;;;2.30;;
63193;SDS011;49289;51.670;5.624;2022-10-16T04:04:56;3.10;;;2.10;;
63193;SDS011;49289;51.670;5.624;2022-10-16T04:06:45;3.00;;;2.00;;
63193;SDS011;49289;51.670;5.624;2022-10-16T04:08:35;3.10;;;2.20;;
63193;SDS011;49289;51.670;5.624;2022-10-16T04:10:23;3.80;;;2.10;;
63193;SDS011;49289;51.670;5.624;2022-10-16T04:12:10;3.60;;;2.00;;
63193;SDS011;49289;51.670;5.624;2022-10-16T04:13:59;2.00;;;1.80;;
63193;SDS011;49289;51.670;5.624;2022-10-16T04:15:48;2.80;;;2.10;;
63193;SDS011;49289;51.670;5.624;2022-10-16T04:17:35;3.40;;;2.10;;
63193;SDS011;49289;51.670;5.624;2022-10-16T04:19:22;3.00;;;2.10;;
63193;SDS011;49289;51.670;5.624;2022-10-16T04:21:09;2.20;;;2.00;;
63193;SDS011;49289;51.670;5.624;2022-10-16T04:22:57;5.00;;;2.10;;
63193;SDS011;49289;51.670;5.624;2022-10-16T04:24:46;2.30;;;2.10;;
63193;SDS011;49289;51.670;5.624;2022-10-16T04:26:34;3.10;;;2.10;;
63193;SDS011;49289;51.670;5.624;2022-10-16T04:28:24;3.60;;;2.10;;
63193;SDS011;49289;51.670;5.624;2022-10-16T04:30:12;2.30;;;2.10;;
63193;SDS011;49289;51.670;5.624;2022-10-16T04:32:01;3.10;;;2.30;;
63193;SDS011;49289;51.670;5.624;2022-10-16T04:33:49;4.50;;;2.20;;
63193;SDS011;49289;51.670;5.624;2022-10-16T04:35:38;4.40;;;2.50;;
63193;SDS011;49289;51.670;5.624;2022-10-16T04:37:28;2.30;;;2.10;;
63193;SDS011;49289;51.670;5.624;2022-10-16T04:39:16;2.40;;;2.20;;
63193;SDS011;49289;51.670;5.624;2022-10-16T04:41:05;2.70;;;2.10;;
63193;SDS011;49289;51.670;5.624;2022-10-16T04:42:53;2.80;;;2.00;;
63193;SDS011;49289;51.670;5.624;2022-10-16T04:44:42;2.70;;;1.90;;
63193;SDS011;49289;51.670;5.624;2022-10-16T04:46:30;3.50;;;2.20;;
63193;SDS011;49289;51.670;5.624;2022-10-16T04:48:18;3.90;;;2.00;;
63193;SDS011;49289;51.670;5.624;2022-10-16T04:50:06;2.90;;;1.80;;
63193;SDS011;49289;51.670;5.624;2022-10-16T04:51:54;2.80;;;1.90;;
63193;SDS011;49289;51.670;5.624;2022-10-16T04:53:42;3.80;;;2.00;;
63193;SDS011;49289;51.670;5.624;2022-10-16T04:55:30;2.50;;;2.00;;
63193;SDS011;49289;51.670;5.624;2022-10-16T04:57:18;4.30;;;2.20;;
63193;SDS011;49289;51.670;5.624;2022-10-16T04:59:08;2.60;;;2.20;;
63193;SDS011;49289;51.670;5.624;2022-10-16T05:00:56;2.20;;;2.00;;
63193;SDS011;49289;51.670;5.624;2022-10-16T05:02:44;3.30;;;1.90;;
63193;SDS011;49289;51.670;5.624;2022-10-16T05:04:33;5.10;;;1.90;;
63193;SDS011;49289;51.670;5.624;2022-10-16T05:06:22;2.50;;;2.00;;
63193;SDS011;49289;51.670;5.624;2022-10-16T05:08:09;2.80;;;2.10;;
63193;SDS011;49289;51.670;5.624;2022-10-16T05:09:57;3.80;;;2.10;;
63193;SDS011;49289;51.670;5.624;2022-10-16T05:11:47;3.80;;;2.00;;
63193;SDS011;49289;51.670;5.624;2022-10-16T05:13:35;2.60;;;2.00;;
63193;SDS011;49289;51.670;5.624;2022-10-16T05:15:22;2.00;;;1.80;;
63193;SDS011;49289;51.670;5.624;2022-10-16T05:17:10;4.00;;;2.30;;
63193;SDS011;49289;51.670;5.624;2022-10-16T05:18:58;3.40;;;2.10;;
63193;SDS011;49289;51.670;5.624;2022-10-16T05:20:45;2.20;;;2.00;;
63193;SDS011;49289;51.670;5.624;2022-10-16T05:22:33;2.40;;;2.00;;
63193;SDS011;49289;51.670;5.624;2022-10-16T05:24:20;3.60;;;2.10;;
63193;SDS011;49289;51.670;5.624;2022-10-16T05:26:08;3.60;;;1.80;;
63193;SDS011;49289;51.670;5.624;2022-10-16T05:27:57;4.60;;;2.00;;
63193;SDS011;49289;51.670;5.624;2022-10-16T05:29:45;2.90;;;2.10;;
63193;SDS011;49289;51.670;5.624;2022-10-16T05:31:32;3.20;;;2.20;;
63193;SDS011;49289;51.670;5.624;2022-10-16T05:33:19;4.60;;;2.10;;
63193;SDS011;49289;51.670;5.624;2022-10-16T05:35:06;5.20;;;2.20;;
63193;SDS011;49289;51.670;5.624;2022-10-16T05:36:54;1.90;;;1.80;;
63193;SDS011;49289;51.670;5.624;2022-10-16T05:38:43;4.60;;;2.30;;
63193;SDS011;49289;51.670;5.624;2022-10-16T05:40:31;3.70;;;2.00;;
63193;SDS011;49289;51.670;5.624;2022-10-16T05:42:20;3.80;;;2.00;;
63193;SDS011;49289;51.670;5.624;2022-10-16T05:44:09;3.80;;;2.20;;
63193;SDS011;49289;51.670;5.624;2022-10-16T05:46:02;2.80;;;2.10;;
63193;SDS011;49289;51.670;5.624;2022-10-16T05:47:48;3.50;;;2.10;;
63193;SDS011;49289;51.670;5.624;2022-10-16T05:49:36;4.00;;;2.20;;
63193;SDS011;49289;51.670;5.624;2022-10-16T05:51:27;5.80;;;2.40;;
63193;SDS011;49289;51.670;5.624;2022-10-16T05:53:15;3.10;;;2.40;;
63193;SDS011;49289;51.670;5.624;2022-10-16T05:55:03;4.30;;;2.50;;
63193;SDS011;49289;51.670;5.624;2022-10-16T05:56:52;5.40;;;2.30;;
63193;SDS011;49289;51.670;5.624;2022-10-16T05:58:41;2.50;;;2.30;;
63193;SDS011;49289;51.670;5.624;2022-10-16T06:00:28;4.30;;;2.40;;
63193;SDS011;49289;51.670;5.624;2022-10-16T06:02:17;3.80;;;2.20;;
63193;SDS011;49289;51.670;5.624;2022-10-16T06:04:04;5.30;;;2.70;;
63193;SDS011;49289;51.670;5.624;2022-10-16T06:05:52;3.30;;;2.40;;
63193;SDS011;49289;51.670;5.624;2022-10-16T06:07:39;3.70;;;2.50;;
63193;SDS011;49289;51.670;5.624;2022-10-16T06:09:29;4.10;;;2.50;;
63193;SDS011;49289;51.670;5.624;2022-10-16T06:11:19;4.10;;;2.70;;
63193;SDS011;49289;51.670;5.624;2022-10-16T06:13:05;4.50;;;2.60;;
63193;SDS011;49289;51.670;5.624;2022-10-16T06:14:52;3.10;;;2.60;;
63193;SDS011;49289;51.670;5.624;2022-10-16T06:16:39;4.60;;;2.60;;
63193;SDS011;49289;51.670;5.624;2022-10-16T06:18:28;5.90;;;2.60;;
63193;SDS011;49289;51.670;5.624;2022-10-16T06:20:17;6.40;;;2.60;;
63193;SDS011;49289;51.670;5.624;2022-10-16T06:22:06;6.90;;;2.90;;
63193;SDS011;49289;51.670;5.624;2022-10-16T06:23:54;3.10;;;2.70;;
63193;SDS011;49289;51.670;5.624;2022-10-16T06:25:42;4.00;;;2.80;;
63193;SDS011;49289;51.670;5.624;2022-10-16T06:27:30;4.30;;;2.70;;
63193;SDS011;49289;51.670;5.624;2022-10-16T06:29:19;4.10;;;2.70;;
63193;SDS011;49289;51.670;5.624;2022-10-16T06:31:08;3.10;;;2.70;;
63193;SDS011;49289;51.670;5.624;2022-10-16T06:32:55;4.00;;;3.10;;
63193;SDS011;49289;51.670;5.624;2022-10-16T06:34:43;3.80;;;2.80;;
63193;SDS011;49289;51.670;5.624;2022-10-16T06:36:31;4.20;;;2.70;;
63193;SDS011;49289;51.670;5.624;2022-10-16T06:38:19;4.70;;;3.00;;
63193;SDS011;49289;51.670;5.624;2022-10-16T06:40:08;6.80;;;3.30;;
63193;SDS011;49289;51.670;5.624;2022-10-16T06:41:55;6.10;;;2.70;;
63193;SDS011;49289;51.670;5.624;2022-10-16T06:43:43;4.20;;;2.80;;
63193;SDS011;49289;51.670;5.624;2022-10-16T06:45:31;5.50;;;3.20;;
63193;SDS011;49289;51.670;5.624;2022-10-16T06:47:18;4.60;;;3.00;;
63193;SDS011;49289;51.670;5.624;2022-10-16T06:49:05;5.60;;;2.90;;
63193;SDS011;49289;51.670;5.624;2022-10-16T06:51:01;5.90;;;3.10;;
63193;SDS011;49289;51.670;5.624;2022-10-16T06:52:47;4.90;;;2.90;;
63193;SDS011;49289;51.670;5.624;2022-10-16T06:54:34;3.90;;;2.60;;
63193;SDS011;49289;51.670;5.624;2022-10-16T06:56:22;3.00;;;2.30;;
63193;SDS011;49289;51.670;5.624;2022-10-16T06:58:08;4.10;;;2.80;;
63193;SDS011;49289;51.670;5.624;2022-10-16T06:59:56;5.70;;;3.10;;
63193;SDS011;49289;51.670;5.624;2022-10-16T07:01:46;4.70;;;2.90;;
63193;SDS011;49289;51.670;5.624;2022-10-16T07:03:35;4.10;;;2.80;;
63193;SDS011;49289;51.670;5.624;2022-10-16T07:05:21;3.30;;;2.60;;
63193;SDS011;49289;51.670;5.624;2022-10-16T07:07:08;8.50;;;2.80;;
63193;SDS011;49289;51.670;5.624;2022-10-16T07:08:55;4.60;;;2.60;;
63193;SDS011;49289;51.670;5.624;2022-10-16T07:10:42;2.80;;;2.60;;
63193;SDS011;49289;51.670;5.624;2022-10-16T07:12:30;4.90;;;2.80;;
63193;SDS011;49289;51.670;5.624;2022-10-16T07:14:20;5.00;;;2.90;;
63193;SDS011;49289;51.670;5.624;2022-10-16T07:16:10;4.10;;;2.70;;
63193;SDS011;49289;51.670;5.624;2022-10-16T07:17:59;5.40;;;2.90;;
63193;SDS011;49289;51.670;5.624;2022-10-16T07:19:47;4.50;;;2.60;;
63193;SDS011;49289;51.670;5.624;2022-10-16T07:21:35;5.10;;;2.80;;
63193;SDS011;49289;51.670;5.624;2022-10-16T07:23:23;5.30;;;2.40;;
63193;SDS011;49289;51.670;5.624;2022-10-16T07:25:12;4.10;;;2.50;;
63193;SDS011;49289;51.670;5.624;2022-10-16T07:27:00;5.30;;;2.80;;
63193;SDS011;49289;51.670;5.624;2022-10-16T07:28:48;6.60;;;3.00;;
63193;SDS011;49289;51.670;5.624;2022-10-16T07:30:36;5.40;;;2.60;;
63193;SDS011;49289;51.670;5.624;2022-10-16T07:32:26;5.60;;;2.60;;
63193;SDS011;49289;51.670;5.624;2022-10-16T07:34:14;3.50;;;2.60;;
63193;SDS011;49289;51.670;5.624;2022-10-16T07:36:01;5.90;;;2.60;;
63193;SDS011;49289;51.670;5.624;2022-10-16T07:37:50;5.60;;;2.70;;
63193;SDS011;49289;51.670;5.624;2022-10-16T07:39:38;4.00;;;2.70;;
63193;SDS011;49289;51.670;5.624;2022-10-16T07:41:27;5.10;;;2.50;;
63193;SDS011;49289;51.670;5.624;2022-10-16T07:43:15;6.60;;;2.60;;
63193;SDS011;49289;51.670;5.624;2022-10-16T07:45:02;4.10;;;2.60;;
63193;SDS011;49289;51.670;5.624;2022-10-16T07:46:52;5.40;;;2.80;;
63193;SDS011;49289;51.670;5.624;2022-10-16T07:48:40;5.60;;;2.60;;
63193;SDS011;49289;51.670;5.624;2022-10-16T07:50:31;5.30;;;2.60;;
63193;SDS011;49289;51.670;5.624;2022-10-16T07:52:19;5.60;;;2.80;;
63193;SDS011;49289;51.670;5.624;2022-10-16T07:54:07;3.90;;;2.40;;
63193;SDS011;49289;51.670;5.624;2022-10-16T07:55:56;3.90;;;2.30;;
63193;SDS011;49289;51.670;5.624;2022-10-16T07:57:44;4.60;;;2.20;;
63193;SDS011;49289;51.670;5.624;2022-10-16T07:59:31;3.70;;;2.30;;
63193;SDS011;49289;51.670;5.624;2022-10-16T08:01:18;4.10;;;2.10;;
63193;SDS011;49289;51.670;5.624;2022-10-16T08:03:07;5.10;;;2.20;;
63193;SDS011;49289;51.670;5.624;2022-10-16T08:04:56;3.00;;;2.30;;
63193;SDS011;49289;51.670;5.624;2022-10-16T08:06:44;5.00;;;2.50;;
63193;SDS011;49289;51.670;5.624;2022-10-16T08:08:31;4.40;;;2.10;;
63193;SDS011;49289;51.670;5.624;2022-10-16T08:10:20;3.30;;;2.20;;
63193;SDS011;49289;51.670;5.624;2022-10-16T08:12:08;4.00;;;2.40;;
63193;SDS011;49289;51.670;5.624;2022-10-16T08:13:55;3.90;;;2.00;;
63193;SDS011;49289;51.670;5.624;2022-10-16T08:15:44;3.80;;;2.10;;
63193;SDS011;49289;51.670;5.624;2022-10-16T08:17:31;6.10;;;2.20;;
63193;SDS011;49289;51.670;5.624;2022-10-16T08:19:19;4.40;;;2.20;;
63193;SDS011;49289;51.670;5.624;2022-10-16T08:21:11;4.10;;;1.90;;
63193;SDS011;49289;51.670;5.624;2022-10-16T08:22:57;3.20;;;1.90;;
63193;SDS011;49289;51.670;5.624;2022-10-16T08:24:44;2.60;;;1.90;;
63193;SDS011;49289;51.670;5.624;2022-10-16T08:26:32;3.60;;;2.00;;
63193;SDS011;49289;51.670;5.624;2022-10-16T08:28:20;7.00;;;2.10;;
63193;SDS011;49289;51.670;5.624;2022-10-16T08:30:10;6.10;;;1.90;;
63193;SDS011;49289;51.670;5.624;2022-10-16T08:32:00;3.10;;;2.00;;
63193;SDS011;49289;51.670;5.624;2022-10-16T08:33:48;4.10;;;2.10;;
63193;SDS011;49289;51.670;5.624;2022-10-16T08:35:36;4.50;;;2.10;;
63193;SDS011;49289;51.670;5.624;2022-10-16T08:37:24;4.40;;;1.90;;
63193;SDS011;49289;51.670;5.624;2022-10-16T08:39:15;4.70;;;1.80;;
63193;SDS011;49289;51.670;5.624;2022-10-16T08:41:08;5.00;;;1.90;;
63193;SDS011;49289;51.670;5.624;2022-10-16T08:43:18;4.50;;;2.00;;
63193;SDS011;49289;51.670;5.624;2022-10-16T08:45:08;4.90;;;1.90;;
63193;SDS011;49289;51.670;5.624;2022-10-16T08:47:02;4.00;;;1.90;;
63193;SDS011;49289;51.670;5.624;2022-10-16T08:48:50;3.50;;;1.90;;
63193;SDS011;49289;51.670;5.624;2022-10-16T08:50:37;4.50;;;1.90;;
63193;SDS011;49289;51.670;5.624;2022-10-16T08:52:23;4.30;;;2.10;;
63193;SDS011;49289;51.670;5.624;2022-10-16T08:54:12;4.40;;;2.00;;
63193;SDS011;49289;51.670;5.624;2022-10-16T08:56:01;3.70;;;2.20;;
63193;SDS011;49289;51.670;5.624;2022-10-16T08:57:48;5.30;;;2.00;;
63193;SDS011;49289;51.670;5.624;2022-10-16T08:59:36;4.90;;;2.00;;
63193;SDS011;49289;51.670;5.624;2022-10-16T09:01:23;3.70;;;2.00;;
63193;SDS011;49289;51.670;5.624;2022-10-16T09:03:10;5.00;;;2.30;;
63193;SDS011;49289;51.670;5.624;2022-10-16T09:05:08;2.40;;;1.70;;
63193;SDS011;49289;51.670;5.624;2022-10-16T09:07:04;3.20;;;1.80;;
63193;SDS011;49289;51.670;5.624;2022-10-16T09:08:54;5.80;;;2.10;;
63193;SDS011;49289;51.670;5.624;2022-10-16T09:10:45;4.40;;;2.10;;
63193;SDS011;49289;51.670;5.624;2022-10-16T09:12:33;3.70;;;2.10;;
63193;SDS011;49289;51.670;5.624;2022-10-16T09:14:28;3.80;;;2.20;;
63193;SDS011;49289;51.670;5.624;2022-10-16T09:16:27;4.50;;;2.10;;
63193;SDS011;49289;51.670;5.624;2022-10-16T09:18:16;5.00;;;1.90;;
63193;SDS011;49289;51.670;5.624;2022-10-16T09:20:15;4.00;;;2.10;;
63193;SDS011;49289;51.670;5.624;2022-10-16T09:22:08;6.80;;;2.00;;
63193;SDS011;49289;51.670;5.624;2022-10-16T09:23:54;7.10;;;2.10;;
63193;SDS011;49289;51.670;5.624;2022-10-16T09:25:45;6.50;;;1.90;;
63193;SDS011;49289;51.670;5.624;2022-10-16T09:27:33;5.10;;;2.10;;
63193;SDS011;49289;51.670;5.624;2022-10-16T09:29:22;5.10;;;1.80;;
63193;SDS011;49289;51.670;5.624;2022-10-16T09:31:13;6.40;;;2.00;;
63193;SDS011;49289;51.670;5.624;2022-10-16T09:33:01;3.50;;;1.70;;
63193;SDS011;49289;51.670;5.624;2022-10-16T09:34:49;5.10;;;1.90;;
63193;SDS011;49289;51.670;5.624;2022-10-16T09:36:36;5.60;;;2.00;;
63193;SDS011;49289;51.670;5.624;2022-10-16T09:38:27;4.80;;;1.90;;
63193;SDS011;49289;51.670;5.624;2022-10-16T09:40:23;4.10;;;1.80;;
63193;SDS011;49289;51.670;5.624;2022-10-16T09:42:11;5.80;;;1.80;;
63193;SDS011;49289;51.670;5.624;2022-10-16T09:44:01;6.20;;;1.90;;
63193;SDS011;49289;51.670;5.624;2022-10-16T09:45:49;6.70;;;1.90;;
63193;SDS011;49289;51.670;5.624;2022-10-16T09:47:42;3.60;;;1.70;;
63193;SDS011;49289;51.670;5.624;2022-10-16T09:49:30;5.40;;;1.90;;
63193;SDS011;49289;51.670;5.624;2022-10-16T09:51:22;6.40;;;2.20;;
63193;SDS011;49289;51.670;5.624;2022-10-16T09:53:10;4.20;;;1.70;;
63193;SDS011;49289;51.670;5.624;2022-10-16T09:54:58;6.10;;;2.00;;
63193;SDS011;49289;51.670;5.624;2022-10-16T09:56:46;8.20;;;1.80;;
63193;SDS011;49289;51.670;5.624;2022-10-16T09:58:33;5.80;;;1.80;;
63193;SDS011;49289;51.670;5.624;2022-10-16T10:00:24;4.60;;;1.60;;
63193;SDS011;49289;51.670;5.624;2022-10-16T10:02:14;9.70;;;1.80;;
63193;SDS011;49289;51.670;5.624;2022-10-16T10:04:02;5.30;;;1.90;;
63193;SDS011;49289;51.670;5.624;2022-10-16T10:05:50;5.90;;;2.10;;
63193;SDS011;49289;51.670;5.624;2022-10-16T10:07:39;8.00;;;1.90;;
63193;SDS011;49289;51.670;5.624;2022-10-16T10:09:26;6.70;;;2.10;;
63193;SDS011;49289;51.670;5.624;2022-10-16T10:11:13;5.80;;;1.90;;
63193;SDS011;49289;51.670;5.624;2022-10-16T10:13:00;9.60;;;2.00;;
63193;SDS011;49289;51.670;5.624;2022-10-16T10:14:48;7.80;;;2.10;;
63193;SDS011;49289;51.670;5.624;2022-10-16T10:16:37;4.70;;;1.70;;
63193;SDS011;49289;51.670;5.624;2022-10-16T10:18:25;8.30;;;2.10;;
63193;SDS011;49289;51.670;5.624;2022-10-16T10:20:21;7.30;;;2.20;;
63193;SDS011;49289;51.670;5.624;2022-10-16T10:21:53;11.00;;;2.00;;
63193;SDS011;49289;51.670;5.624;2022-10-16T10:23:40;5.40;;;2.00;;
63193;SDS011;49289;51.670;5.624;2022-10-16T10:25:33;6.90;;;1.90;;
63193;SDS011;49289;51.670;5.624;2022-10-16T10:27:26;11.80;;;2.20;;
63193;SDS011;49289;51.670;5.624;2022-10-16T10:29:17;8.50;;;1.90;;
63193;SDS011;49289;51.670;5.624;2022-10-16T10:31:19;7.50;;;1.80;;
63193;SDS011;49289;51.670;5.624;2022-10-16T10:33:13;8.60;;;1.60;;
63193;SDS011;49289;51.670;5.624;2022-10-16T10:35:11;6.80;;;1.80;;
63193;SDS011;49289;51.670;5.624;2022-10-16T10:36:59;5.70;;;1.80;;
63193;SDS011;49289;51.670;5.624;2022-10-16T10:38:49;9.30;;;2.20;;
63193;SDS011;49289;51.670;5.624;2022-10-16T10:40:42;6.30;;;1.90;;
63193;SDS011;49289;51.670;5.624;2022-10-16T10:42:30;5.60;;;1.80;;
63193;SDS011;49289;51.670;5.624;2022-10-16T10:44:20;5.80;;;1.80;;
63193;SDS011;49289;51.670;5.624;2022-10-16T10:46:08;5.30;;;1.90;;
63193;SDS011;49289;51.670;5.624;2022-10-16T10:47:59;7.60;;;2.10;;
63193;SDS011;49289;51.670;5.624;2022-10-16T10:49:56;9.80;;;2.50;;
63193;SDS011;49289;51.670;5.624;2022-10-16T10:51:44;7.60;;;2.20;;
63193;SDS011;49289;51.670;5.624;2022-10-16T10:53:32;5.20;;;1.70;;